createdAt,value
2019-05-05T00:03:19.239Z,0.90
2019-05-05T00:08:24.580Z,1.60
2019-05-05T00:13:47.884Z,1.37
2019-05-05T00:18:54.310Z,1.33
2019-05-05T00:23:58.619Z,1.30
2019-05-05T00:29:04.555Z,1.73
2019-05-05T00:34:11.730Z,1.30
2019-05-05T00:39:18.235Z,1.43
2019-05-05T00:44:24.597Z,0.97
2019-05-05T00:49:29.107Z,1.13
2019-05-05T00:54:34.686Z,0.97
2019-05-05T00:59:42.408Z,1.20
2019-05-05T01:05:05.951Z,1.30
2019-05-05T01:10:10.496Z,1.17
2019-05-05T01:15:18.982Z,1.77
2019-05-05T01:20:24.882Z,1.10
2019-05-05T01:25:29.847Z,1.10
2019-05-05T01:30:36.802Z,1.20
2019-05-05T01:35:40.973Z,1.30
2019-05-05T01:40:56.513Z,1.20
2019-05-05T01:46:00.834Z,1.33
2019-05-05T01:51:05.213Z,1.47
2019-05-05T01:56:12.375Z,2.47
2019-05-05T02:01:16.518Z,0.90
2019-05-05T02:06:20.667Z,1.03
2019-05-05T02:11:26.770Z,1.13
2019-05-05T02:16:30.644Z,1.30
2019-05-05T02:21:35.418Z,1.20
2019-05-05T02:26:39.612Z,1.17
2019-05-05T02:32:01.922Z,2.60
2019-05-05T02:37:07.704Z,1.23
2019-05-05T02:42:14.550Z,1.20
2019-05-05T02:47:28.289Z,1.10
2019-05-05T02:52:34.710Z,1.20
2019-05-05T02:57:38.915Z,1.33
2019-05-05T03:02:43.533Z,1.10
2019-05-05T03:07:50.644Z,1.07
2019-05-05T03:12:55.212Z,1.43
2019-05-05T03:17:59.378Z,1.40
2019-05-05T03:23:04.201Z,1.10
2019-05-05T03:28:08.502Z,1.07
2019-05-05T03:33:15.695Z,1.23
2019-05-05T03:38:19.044Z,0.90
2019-05-05T03:43:29.558Z,1.00
2019-05-05T03:48:34.623Z,0.87
2019-05-05T03:53:40.175Z,1.53
2019-05-05T03:58:49.631Z,1.10
2019-05-05T04:03:50.712Z,1.20
2019-05-05T04:08:58.218Z,2.10
2019-05-05T04:14:03.678Z,1.03
2019-05-05T04:19:09.049Z,1.40
2019-05-05T04:24:14.592Z,1.70
2019-05-05T04:29:20.927Z,1.30
2019-05-05T04:34:25.028Z,1.10
2019-05-05T04:39:30.163Z,1.37
2019-05-05T04:44:34.791Z,1.53
2019-05-05T04:49:45.490Z,1.07
2019-05-05T04:54:55.488Z,1.10
2019-05-05T04:59:59.616Z,0.90
2019-05-05T05:05:09.240Z,1.93
2019-05-05T05:10:13.966Z,1.90
2019-05-05T05:15:18.927Z,1.60
2019-05-05T05:20:24.664Z,1.90
2019-05-05T05:25:29.468Z,1.33
2019-05-05T05:30:34.737Z,1.80
2019-05-05T05:35:39.312Z,3.47
2019-05-05T05:41:04.217Z,2.43
2019-05-05T05:46:21.651Z,2.17
2019-05-05T05:51:25.918Z,2.60
2019-05-05T05:56:30.013Z,2.30
2019-05-05T06:01:34.672Z,2.50
2019-05-05T06:06:40.291Z,2.20
2019-05-05T06:11:44.401Z,2.93
2019-05-05T06:16:48.764Z,3.00
2019-05-05T06:21:54.263Z,3.17
2019-05-05T06:26:59.883Z,3.67
2019-05-05T06:32:04.516Z,3.70
2019-05-05T06:37:08.615Z,3.40
2019-05-05T06:42:25.468Z,4.00
2019-05-05T06:47:44.504Z,3.07
2019-05-05T06:52:48.731Z,3.60
2019-05-05T06:57:53.885Z,3.63
2019-05-05T07:02:59.784Z,3.53
2019-05-05T07:08:04.567Z,4.50
2019-05-05T07:13:10.361Z,4.10
2019-05-05T07:18:15.689Z,5.00
2019-05-05T07:23:21.169Z,3.60
2019-05-05T07:28:26.499Z,4.20
2019-05-05T07:33:30.643Z,3.73
2019-05-05T07:38:34.973Z,4.23
2019-05-05T07:43:43.789Z,3.60
2019-05-05T07:48:49.815Z,3.67
2019-05-05T07:53:54.780Z,3.93
2019-05-05T07:58:58.964Z,2.97
2019-05-05T08:04:04.495Z,3.17
2019-05-05T08:09:09.115Z,4.50
2019-05-05T08:14:14.574Z,2.90
2019-05-05T08:19:38.182Z,2.80
2019-05-05T08:25:06.082Z,2.40
2019-05-05T08:30:19.563Z,2.83
2019-05-05T08:35:25.082Z,2.43
2019-05-05T08:40:31.113Z,2.70
2019-05-05T08:45:35.323Z,1.43
2019-05-05T08:50:40.060Z,1.60
2019-05-05T08:55:46.535Z,2.30
2019-05-05T09:00:50.609Z,4.17
2019-05-05T09:06:08.709Z,2.63
2019-05-05T09:11:04.728Z,2.40
2019-05-05T09:16:10.588Z,2.10
2019-05-05T09:21:14.717Z,2.90
2019-05-05T09:26:29.167Z,2.33
2019-05-05T09:31:34.395Z,1.70
2019-05-05T09:36:43.900Z,3.63
2019-05-05T09:41:48.180Z,2.23
2019-05-05T09:46:54.012Z,1.77
2019-05-05T09:51:58.609Z,3.43
2019-05-05T09:57:04.489Z,2.37
2019-05-05T10:02:10.149Z,4.03
2019-05-05T10:07:41.417Z,2.67
2019-05-05T10:12:24.752Z,1.70
2019-05-05T10:17:29.140Z,2.03
2019-05-05T10:22:34.320Z,3.40
2019-05-05T10:27:44.938Z,3.53
2019-05-05T10:32:47.337Z,1.83
2019-05-05T10:37:55.193Z,2.40
2019-05-05T10:42:59.236Z,3.27
2019-05-05T10:48:04.168Z,1.87
2019-05-05T10:53:08.685Z,2.23
2019-05-05T10:58:13.932Z,1.27
2019-05-05T11:03:20.236Z,0.80
2019-05-05T11:08:24.555Z,1.97
2019-05-05T11:13:29.241Z,3.43
2019-05-05T11:18:34.685Z,2.23
2019-05-05T11:23:38.996Z,1.37
2019-05-05T11:28:44.530Z,1.67
2019-05-05T11:34:11.043Z,1.40
2019-05-05T11:39:15.418Z,3.40
2019-05-05T11:44:20.526Z,1.13
2019-05-05T11:49:28.362Z,1.33
2019-05-05T11:54:32.468Z,2.13
2019-05-05T11:59:38.308Z,2.13
2019-05-05T12:04:46.651Z,1.73
2019-05-05T12:09:55.037Z,1.73
2019-05-05T12:14:59.157Z,5.97
2019-05-05T12:20:08.151Z,3.63
2019-05-05T12:25:32.109Z,1.43
2019-05-05T12:30:36.368Z,2.40
2019-05-05T12:35:44.494Z,6.17
2019-05-05T12:40:47.509Z,2.13
2019-05-05T12:46:04.509Z,2.27
2019-05-05T12:51:08.885Z,2.10
2019-05-05T12:56:14.561Z,1.17
2019-05-05T13:01:21.572Z,1.50
2019-05-05T13:06:25.704Z,1.20
2019-05-05T13:11:31.551Z,2.63
2019-05-05T13:16:36.504Z,2.90
2019-05-05T13:21:59.212Z,3.43
2019-05-05T13:27:10.750Z,1.53
2019-05-05T13:32:14.371Z,2.07
2019-05-05T13:37:18.571Z,3.00
2019-05-05T13:42:24.344Z,1.77
2019-05-05T13:47:29.232Z,1.77
2019-05-05T13:52:34.884Z,2.30
2019-05-05T13:57:38.980Z,3.07
2019-05-05T14:02:44.316Z,1.67
2019-05-05T14:07:49.471Z,2.20
2019-05-05T14:12:53.819Z,3.37
2019-05-05T14:17:57.928Z,1.73
2019-05-05T14:23:03.871Z,2.17
2019-05-05T14:28:08.063Z,0.93
2019-05-05T14:33:16.976Z,2.43
2019-05-05T14:38:41.629Z,1.23
2019-05-05T14:43:45.987Z,1.30
2019-05-05T14:48:53.816Z,3.30
2019-05-05T14:53:59.823Z,2.40
2019-05-05T14:59:04.366Z,2.40
2019-05-05T15:04:10.121Z,2.53
2019-05-05T15:09:21.939Z,3.13
2019-05-05T15:14:27.086Z,1.93
2019-05-05T15:19:31.240Z,2.83
2019-05-05T15:24:35.348Z,1.37
2019-05-05T15:29:39.928Z,2.50
2019-05-05T15:34:44.106Z,1.17
2019-05-05T15:39:49.309Z,1.70
2019-05-05T15:44:55.163Z,3.43
2019-05-05T15:49:59.816Z,2.57
2019-05-05T15:55:06.204Z,1.20
2019-05-05T16:00:10.747Z,1.77
2019-05-05T16:05:15.522Z,2.40
2019-05-05T16:10:22.630Z,1.30
2019-05-05T16:15:50.311Z,3.40
2019-05-05T16:21:08.336Z,1.20
2019-05-05T16:26:15.035Z,2.40
2019-05-05T16:31:19.350Z,2.43
2019-05-05T16:36:24.322Z,3.07
2019-05-05T16:41:28.479Z,3.10
2019-05-05T16:46:34.165Z,3.60
2019-05-05T16:51:47.714Z,4.67
2019-05-05T16:56:52.301Z,5.60
2019-05-05T17:01:56.652Z,3.53
2019-05-05T17:07:01.015Z,4.13
2019-05-05T17:12:09.224Z,5.00
2019-05-05T17:17:35.520Z,2.80
2019-05-05T17:22:48.300Z,3.47
2019-05-05T17:27:54.560Z,5.27
2019-05-05T17:33:00.937Z,4.17
2019-05-05T17:38:10.080Z,3.50
2019-05-05T17:43:39.235Z,4.47
2019-05-05T17:48:53.877Z,2.67
2019-05-05T17:54:17.983Z,3.27
2019-05-05T17:59:27.328Z,6.27
2019-05-05T18:04:34.055Z,5.87
2019-05-05T18:09:56.955Z,4.90
2019-05-05T18:15:01.460Z,3.23
2019-05-05T18:20:05.772Z,5.37
2019-05-05T18:25:09.983Z,3.30
2019-05-05T18:30:14.508Z,4.17
2019-05-05T18:35:18.635Z,5.30
2019-05-05T18:40:24.789Z,4.37
2019-05-05T18:45:28.899Z,4.00
2019-05-05T18:50:33.952Z,2.20
2019-05-05T18:55:38.239Z,3.40
2019-05-05T19:01:00.476Z,4.07
2019-05-05T19:06:26.269Z,2.83
2019-05-05T19:11:30.687Z,2.83
2019-05-05T19:16:34.871Z,3.40
2019-05-05T19:21:43.636Z,3.23
2019-05-05T19:26:47.695Z,3.13
2019-05-05T19:31:51.825Z,4.10
2019-05-05T19:36:57.040Z,4.00
2019-05-05T19:42:01.145Z,5.70
2019-05-05T19:47:13.908Z,3.50
2019-05-05T19:52:23.906Z,3.90
2019-05-05T19:57:29.081Z,3.70
2019-05-05T20:02:34.088Z,5.50
2019-05-05T20:07:38.667Z,3.90
2019-05-05T20:12:44.846Z,2.50
2019-05-05T20:17:48.745Z,2.87
2019-05-05T20:22:54.792Z,2.27
2019-05-05T20:28:01.080Z,3.60
2019-05-05T20:33:16.264Z,3.33
2019-05-05T20:38:30.006Z,2.37
2019-05-05T20:43:34.144Z,3.83
2019-05-05T20:48:41.011Z,5.40
2019-05-05T20:53:45.919Z,3.33
2019-05-05T20:58:54.919Z,2.63
2019-05-05T21:03:59.091Z,3.03
2019-05-05T21:09:06.075Z,3.60
2019-05-05T21:14:14.707Z,3.87
2019-05-05T21:19:18.015Z,1.90
2019-05-05T21:24:23.942Z,3.37
2019-05-05T21:29:39.546Z,3.33
2019-05-05T21:34:35.548Z,3.33
2019-05-05T21:39:39.671Z,3.77
2019-05-05T21:44:44.402Z,2.90
2019-05-05T21:49:51.493Z,5.27
2019-05-05T21:55:04.227Z,3.90
2019-05-05T22:00:34.576Z,4.87
2019-05-05T22:05:40.114Z,3.40
2019-05-05T22:10:45.641Z,3.70
2019-05-05T22:15:50.036Z,4.07
2019-05-05T22:21:15.960Z,4.03
2019-05-05T22:26:20.232Z,2.87
2019-05-05T22:31:24.610Z,5.33
2019-05-05T22:36:28.952Z,4.43
2019-05-05T22:41:33.738Z,3.90
2019-05-05T22:46:38.433Z,5.27
2019-05-05T22:51:44.522Z,3.77
2019-05-05T22:56:48.580Z,3.67
2019-05-05T23:01:54.262Z,4.33
2019-05-05T23:07:03.843Z,2.93
2019-05-05T23:12:08.327Z,4.17
2019-05-05T23:17:30.153Z,5.50
2019-05-05T23:22:59.529Z,3.47
2019-05-05T23:28:04.104Z,2.60
2019-05-05T23:33:09.333Z,3.73
2019-05-05T23:38:14.366Z,3.67
2019-05-05T23:43:18.704Z,2.30
2019-05-05T23:48:24.028Z,4.20
2019-05-05T23:53:28.340Z,2.77
2019-05-05T23:58:34.763Z,3.47
